createdAt,value
2017-09-28T00:00:00.315Z,14.80
2017-09-28T00:02:29.672Z,14.80
2017-09-28T00:04:58.770Z,14.80
2017-09-28T00:07:28.006Z,14.70
2017-09-28T00:09:57.892Z,14.60
2017-09-28T00:12:27.085Z,14.50
2017-09-28T00:14:56.228Z,14.60
2017-09-28T00:17:26.019Z,14.60
2017-09-28T00:19:55.313Z,14.60
2017-09-28T00:22:24.618Z,14.60
2017-09-28T00:24:53.997Z,14.60
2017-09-28T00:27:23.313Z,14.60
2017-09-28T00:29:52.732Z,14.60
2017-09-28T00:32:22.318Z,14.60
2017-09-28T00:34:52.430Z,14.60
2017-09-28T00:37:21.757Z,14.60
2017-09-28T00:39:53.104Z,14.60
2017-09-28T00:42:22.297Z,14.60
2017-09-28T00:44:51.627Z,14.60
2017-09-28T00:47:21.086Z,14.50
2017-09-28T00:49:50.254Z,14.60
2017-09-28T00:52:19.501Z,14.50
2017-09-28T00:54:49.388Z,14.50
2017-09-28T00:57:19.525Z,14.50
2017-09-28T00:59:48.812Z,14.60
2017-09-28T01:02:19.901Z,14.60
2017-09-28T01:04:49.177Z,14.60
2017-09-28T01:07:18.373Z,14.60
2017-09-28T01:09:47.780Z,14.60
2017-09-28T01:12:16.977Z,14.50
2017-09-28T01:14:46.104Z,14.60
2017-09-28T01:17:16.046Z,14.60
2017-09-28T01:19:45.265Z,14.60
2017-09-28T01:22:14.456Z,14.60
2017-09-28T01:24:44.499Z,14.60
2017-09-28T01:27:13.648Z,14.60
2017-09-28T01:29:42.997Z,14.60
2017-09-28T01:32:12.567Z,14.60
2017-09-28T01:34:41.682Z,14.60
2017-09-28T01:37:10.835Z,14.60
2017-09-28T01:39:40.434Z,14.60
2017-09-28T01:42:09.578Z,14.60
2017-09-28T01:44:38.749Z,14.70
2017-09-28T01:47:08.254Z,14.60
2017-09-28T01:49:37.384Z,14.70
2017-09-28T01:52:06.556Z,14.70
2017-09-28T01:54:36.598Z,14.70
2017-09-28T01:57:06.514Z,14.70
2017-09-28T01:59:35.662Z,14.70
2017-09-28T02:02:07.036Z,14.70
2017-09-28T02:04:36.157Z,14.70
2017-09-28T02:07:05.304Z,14.70
2017-09-28T02:09:34.553Z,14.70
2017-09-28T02:12:04.428Z,14.60
2017-09-28T02:14:33.544Z,14.60
2017-09-28T02:17:04.054Z,14.60
2017-09-28T02:19:34.015Z,14.60
2017-09-28T02:22:03.202Z,14.60
2017-09-28T02:24:32.378Z,14.70
2017-09-28T02:27:01.558Z,14.60
2017-09-28T02:29:30.681Z,14.70
2017-09-28T02:32:00.148Z,14.70
2017-09-28T02:34:30.281Z,14.70
2017-09-28T02:37:00.216Z,14.80
2017-09-28T02:39:29.731Z,14.80
2017-09-28T02:41:58.841Z,14.70
2017-09-28T02:44:28.014Z,14.60
2017-09-28T02:46:58.313Z,14.60
2017-09-28T02:49:27.401Z,14.60
2017-09-28T02:51:57.293Z,14.70
2017-09-28T02:54:27.635Z,14.60
2017-09-28T02:56:56.848Z,14.60
2017-09-28T02:59:25.971Z,14.60
2017-09-28T03:01:55.492Z,14.60
2017-09-28T03:04:24.658Z,14.60
2017-09-28T03:06:55.419Z,14.60
2017-09-28T03:09:24.802Z,14.60
2017-09-28T03:11:54.117Z,14.70
2017-09-28T03:14:23.374Z,14.70
2017-09-28T03:16:52.567Z,14.70
2017-09-28T03:19:21.806Z,14.60
2017-09-28T03:21:51.010Z,14.70
2017-09-28T03:24:20.645Z,14.70
2017-09-28T03:26:49.893Z,14.70
2017-09-28T03:29:19.142Z,14.70
2017-09-28T03:31:48.746Z,14.70
2017-09-28T03:34:17.968Z,14.60
2017-09-28T03:36:48.069Z,14.60
2017-09-28T03:39:17.658Z,14.60
2017-09-28T03:41:47.675Z,14.60
2017-09-28T03:44:16.855Z,14.60
2017-09-28T03:46:46.370Z,14.60
2017-09-28T03:49:16.385Z,14.60
2017-09-28T03:51:46.302Z,14.60
2017-09-28T03:54:15.765Z,14.60
2017-09-28T03:56:45.927Z,14.60
2017-09-28T03:59:15.122Z,14.60
2017-09-28T04:01:44.409Z,14.70
2017-09-28T04:04:13.554Z,14.60
2017-09-28T04:06:42.670Z,14.60
2017-09-28T04:09:11.998Z,14.60
2017-09-28T04:11:41.931Z,14.50
2017-09-28T04:14:11.080Z,14.50
2017-09-28T04:16:41.508Z,14.60
2017-09-28T04:19:10.614Z,14.60
2017-09-28T04:21:39.745Z,14.50
2017-09-28T04:24:09.286Z,14.50
2017-09-28T04:26:38.446Z,14.50
2017-09-28T04:29:07.555Z,14.50
2017-09-28T04:31:36.982Z,14.40
2017-09-28T04:34:06.865Z,14.40
2017-09-28T04:36:36.012Z,14.40
2017-09-28T04:39:06.367Z,14.40
2017-09-28T04:41:36.258Z,14.30
2017-09-28T04:44:05.399Z,14.30
2017-09-28T04:46:34.656Z,14.40
2017-09-28T04:49:03.812Z,14.40
2017-09-28T04:51:33.755Z,14.50
2017-09-28T04:54:03.431Z,14.50
2017-09-28T04:56:34.359Z,14.60
2017-09-28T04:59:03.512Z,14.60
2017-09-28T05:01:33.644Z,14.70
2017-09-28T05:04:02.818Z,14.70
2017-09-28T05:06:32.709Z,14.70
2017-09-28T05:09:02.084Z,14.70
2017-09-28T05:11:31.976Z,14.60
2017-09-28T05:14:01.142Z,14.60
2017-09-28T05:16:30.664Z,14.60
2017-09-28T05:19:00.566Z,14.50
2017-09-28T05:21:29.692Z,14.50
2017-09-28T05:23:58.992Z,14.50
2017-09-28T05:26:28.509Z,14.50
2017-09-28T05:28:57.711Z,14.50
2017-09-28T05:31:27.209Z,14.60
2017-09-28T05:33:56.467Z,14.50
2017-09-28T05:36:26.479Z,14.60
2017-09-28T05:38:55.823Z,14.50
2017-09-28T05:41:25.134Z,14.50
2017-09-28T05:43:55.241Z,14.50
2017-09-28T05:46:24.761Z,14.50
2017-09-28T05:48:54.783Z,14.50
2017-09-28T05:51:24.063Z,14.50
2017-09-28T05:53:54.097Z,14.50
2017-09-28T05:56:23.498Z,14.40
2017-09-28T05:58:52.798Z,14.40
2017-09-28T06:01:22.312Z,14.30
2017-09-28T06:03:51.702Z,14.30
2017-09-28T06:06:21.006Z,14.30
2017-09-28T06:08:50.817Z,14.30
2017-09-28T06:11:20.326Z,14.30
2017-09-28T06:13:49.814Z,14.30
2017-09-28T06:16:20.158Z,14.40
2017-09-28T06:18:49.768Z,14.40
2017-09-28T06:21:20.111Z,14.50
2017-09-28T06:23:49.486Z,14.40
2017-09-28T06:26:18.755Z,14.30
2017-09-28T06:28:47.984Z,14.40
2017-09-28T06:31:17.662Z,14.40
2017-09-28T06:33:46.848Z,14.20
2017-09-28T06:36:16.068Z,14.20
2017-09-28T06:38:46.551Z,14.10
2017-09-28T06:41:15.802Z,14.10
2017-09-28T06:43:44.948Z,14.20
2017-09-28T06:46:14.361Z,14.20
2017-09-28T06:48:43.511Z,14.20
2017-09-28T06:51:13.507Z,14.20
2017-09-28T06:53:43.725Z,14.20
2017-09-28T06:56:13.763Z,14.20
2017-09-28T06:58:43.249Z,14.20
2017-09-28T07:01:12.828Z,14.30
2017-09-28T07:03:41.973Z,14.30
2017-09-28T07:06:11.502Z,14.40
2017-09-28T07:08:40.786Z,14.40
2017-09-28T07:11:09.982Z,14.30
2017-09-28T07:13:39.142Z,14.30
2017-09-28T07:16:08.707Z,14.30
2017-09-28T07:18:38.645Z,14.30
2017-09-28T07:21:07.771Z,14.30
2017-09-28T07:23:37.192Z,14.30
2017-09-28T07:26:07.311Z,14.20
2017-09-28T07:28:36.490Z,14.30
2017-09-28T07:31:05.860Z,14.30
2017-09-28T07:33:35.805Z,14.30
2017-09-28T07:36:05.076Z,14.30
2017-09-28T07:38:34.566Z,14.40
2017-09-28T07:41:03.718Z,14.60
2017-09-28T07:43:33.625Z,14.80
2017-09-28T07:46:03.975Z,14.70
2017-09-28T07:48:33.162Z,14.70
2017-09-28T07:51:04.230Z,14.70
2017-09-28T07:53:33.830Z,14.80
2017-09-28T07:56:03.879Z,14.80
2017-09-28T07:58:33.086Z,14.80
2017-09-28T08:01:03.046Z,14.80
2017-09-28T08:03:32.233Z,14.90
2017-09-28T08:06:01.534Z,15.00
2017-09-28T08:08:31.990Z,15.10
2017-09-28T08:11:01.970Z,15.20
2017-09-28T08:13:31.888Z,15.30
2017-09-28T08:16:02.126Z,15.20
2017-09-28T08:18:31.374Z,15.20
2017-09-28T08:21:02.341Z,15.10
2017-09-28T08:23:32.484Z,15.20
2017-09-28T08:26:01.663Z,15.00
2017-09-28T08:28:30.857Z,15.10
2017-09-28T08:31:00.272Z,15.20
2017-09-28T08:33:30.180Z,15.60
2017-09-28T08:36:00.262Z,15.60
2017-09-28T08:38:29.597Z,15.70
2017-09-28T08:40:58.758Z,15.70
2017-09-28T08:43:28.087Z,15.60
2017-09-28T08:45:57.538Z,15.60
2017-09-28T08:48:28.238Z,15.60
2017-09-28T08:50:57.421Z,15.70
2017-09-28T08:53:28.990Z,15.40
2017-09-28T08:55:58.193Z,15.40
2017-09-28T08:58:27.382Z,15.20
2017-09-28T09:00:57.021Z,15.20
2017-09-28T09:03:26.205Z,15.10
2017-09-28T09:05:56.115Z,15.10
2017-09-28T09:08:25.310Z,15.00
2017-09-28T09:10:54.505Z,14.90
2017-09-28T09:13:23.711Z,14.90
2017-09-28T09:15:54.030Z,15.00
2017-09-28T09:18:24.073Z,14.90
2017-09-28T09:20:53.349Z,14.90
2017-09-28T09:23:22.803Z,14.90
2017-09-28T09:25:56.600Z,15.10
2017-09-28T09:28:26.523Z,15.00
2017-09-28T09:30:55.698Z,15.20
2017-09-28T09:33:24.845Z,15.30
2017-09-28T09:35:55.478Z,15.60
2017-09-28T09:38:24.698Z,15.90
2017-09-28T09:40:54.380Z,16.10
2017-09-28T09:43:23.813Z,16.40
2017-09-28T09:45:54.016Z,16.30
2017-09-28T09:48:23.206Z,16.20
2017-09-28T09:50:52.582Z,15.90
2017-09-28T09:53:22.013Z,15.70
2017-09-28T09:55:51.263Z,15.60
2017-09-28T09:58:20.818Z,15.50
2017-09-28T10:00:49.986Z,16.10
2017-09-28T10:03:19.493Z,16.60
2017-09-28T10:05:48.754Z,16.40
2017-09-28T10:08:25.227Z,16.30
2017-09-28T10:10:58.478Z,16.10
2017-09-28T10:13:35.832Z,16.00
2017-09-28T10:16:06.667Z,15.70
2017-09-28T10:18:35.797Z,16.30
2017-09-28T10:21:04.949Z,16.30
2017-09-28T10:23:34.429Z,16.30
2017-09-28T10:26:04.315Z,16.20
2017-09-28T10:28:34.252Z,16.20
2017-09-28T10:31:04.146Z,16.10
2017-09-28T10:33:33.341Z,16.00
2017-09-28T10:36:02.604Z,15.90
2017-09-28T10:38:32.180Z,16.00
2017-09-28T10:41:01.282Z,15.80
2017-09-28T10:43:30.438Z,15.90
2017-09-28T10:46:00.407Z,15.90
2017-09-28T10:48:29.573Z,15.90
2017-09-28T10:50:59.595Z,15.80
2017-09-28T10:53:29.197Z,15.80
2017-09-28T10:55:58.402Z,15.90
2017-09-28T10:58:27.573Z,16.00
2017-09-28T11:00:57.102Z,16.00
2017-09-28T11:03:27.528Z,16.20
2017-09-28T11:05:56.934Z,16.30
2017-09-28T11:08:27.250Z,16.60
2017-09-28T11:10:56.430Z,16.60
2017-09-28T11:13:25.726Z,16.50
2017-09-28T11:15:55.257Z,16.60
2017-09-28T11:18:24.560Z,16.70
2017-09-28T11:20:53.748Z,16.70
2017-09-28T11:23:23.261Z,16.80
2017-09-28T11:25:53.637Z,17.00
2017-09-28T11:28:22.861Z,17.00
2017-09-28T11:30:54.181Z,17.00
2017-09-28T11:33:23.324Z,16.90
2017-09-28T11:35:52.520Z,16.80
2017-09-28T11:38:22.205Z,16.70
2017-09-28T11:40:52.862Z,16.60
2017-09-28T11:43:22.985Z,16.60
2017-09-28T11:45:52.549Z,16.70
2017-09-28T11:48:21.734Z,16.80
2017-09-28T11:50:50.993Z,16.80
2017-09-28T11:53:21.315Z,17.00
2017-09-28T11:55:50.719Z,17.10
2017-09-28T11:58:22.960Z,17.20
2017-09-28T12:00:56.494Z,17.30
2017-09-28T12:03:26.233Z,17.60
2017-09-28T12:05:56.185Z,18.40
2017-09-28T12:08:25.867Z,18.80
2017-09-28T12:10:55.131Z,18.90
2017-09-28T12:13:26.823Z,19.30
2017-09-28T12:15:57.530Z,19.50
2017-09-28T12:18:28.463Z,19.70
2017-09-28T12:21:02.803Z,19.30
2017-09-28T12:23:32.833Z,18.80
2017-09-28T12:26:03.261Z,19.10
2017-09-28T12:28:33.042Z,19.40
2017-09-28T12:31:03.767Z,19.10
2017-09-28T12:33:36.658Z,18.90
2017-09-28T12:36:06.215Z,18.50
2017-09-28T12:38:41.509Z,18.20
2017-09-28T12:41:11.960Z,18.20
2017-09-28T12:43:41.872Z,18.10
2017-09-28T12:46:12.611Z,17.70
2017-09-28T12:48:41.734Z,17.70
2017-09-28T12:51:10.876Z,17.70
2017-09-28T12:53:40.139Z,17.60
2017-09-28T12:56:09.416Z,17.50
2017-09-28T12:58:40.449Z,17.40
2017-09-28T13:01:11.745Z,17.30
2017-09-28T13:03:40.921Z,17.30
2017-09-28T13:06:10.371Z,17.20
2017-09-28T13:08:39.713Z,17.10
2017-09-28T13:11:08.910Z,17.00
2017-09-28T13:13:39.033Z,16.90
2017-09-28T13:16:08.406Z,16.90
2017-09-28T13:18:38.553Z,16.90
2017-09-28T13:21:13.968Z,16.90
2017-09-28T13:23:44.037Z,16.90
2017-09-28T13:26:14.006Z,17.00
2017-09-28T13:28:43.304Z,17.00
2017-09-28T13:31:12.392Z,16.90
2017-09-28T13:33:41.982Z,16.90
2017-09-28T13:36:11.642Z,16.90
2017-09-28T13:38:40.787Z,16.80
2017-09-28T13:41:12.007Z,16.80
2017-09-28T13:43:42.235Z,16.80
2017-09-28T13:46:11.416Z,16.80
2017-09-28T13:48:40.598Z,16.60
2017-09-28T13:51:10.154Z,16.70
2017-09-28T13:53:39.298Z,16.60
2017-09-28T13:56:08.496Z,16.70
2017-09-28T13:58:37.918Z,16.60
2017-09-28T14:01:07.812Z,16.80
2017-09-28T14:03:36.986Z,16.70
2017-09-28T14:06:07.771Z,16.70
2017-09-28T14:08:36.898Z,16.70
2017-09-28T14:11:06.048Z,16.80
2017-09-28T14:13:35.211Z,16.70
2017-09-28T14:16:04.352Z,16.80
2017-09-28T14:18:33.507Z,16.70
2017-09-28T14:21:03.245Z,16.80
2017-09-28T14:23:32.439Z,16.80
2017-09-28T14:26:01.642Z,16.80
2017-09-28T14:28:31.069Z,16.80
2017-09-28T14:31:01.953Z,16.70
2017-09-28T14:33:35.502Z,16.70
2017-09-28T14:36:07.491Z,16.70
2017-09-28T14:38:38.076Z,16.70
2017-09-28T14:41:09.031Z,16.70
2017-09-28T14:43:38.262Z,16.70
2017-09-28T14:46:07.552Z,16.60
2017-09-28T14:48:36.702Z,16.60
2017-09-28T14:51:07.003Z,16.70
2017-09-28T14:53:37.868Z,16.50
2017-09-28T14:56:08.919Z,16.70
2017-09-28T14:58:39.264Z,16.70
2017-09-28T15:01:08.409Z,16.50
2017-09-28T15:03:37.558Z,16.50
2017-09-28T15:06:06.843Z,16.60
2017-09-28T15:08:36.743Z,16.60
2017-09-28T15:11:06.722Z,16.60
2017-09-28T15:13:36.165Z,16.60
2017-09-28T15:16:06.204Z,16.60
2017-09-28T15:18:35.891Z,16.50
2017-09-28T15:21:06.281Z,16.50
2017-09-28T15:23:35.832Z,16.50
2017-09-28T15:26:04.953Z,16.40
2017-09-28T15:28:35.098Z,16.50
2017-09-28T15:31:04.262Z,16.50
2017-09-28T15:33:33.394Z,16.50
2017-09-28T15:36:02.833Z,16.50
2017-09-28T15:38:31.952Z,16.40
2017-09-28T15:41:02.894Z,16.40
2017-09-28T15:43:33.241Z,16.40
2017-09-28T15:46:04.464Z,16.40
2017-09-28T15:48:35.215Z,16.50
2017-09-28T15:51:05.114Z,16.40
2017-09-28T15:53:35.026Z,16.30
2017-09-28T15:56:04.722Z,16.40
2017-09-28T15:58:34.947Z,16.40
2017-09-28T16:01:05.457Z,16.40
2017-09-28T16:03:37.247Z,16.50
2017-09-28T16:06:08.175Z,16.40
2017-09-28T16:08:37.323Z,16.50
2017-09-28T16:11:14.327Z,16.40
2017-09-28T16:13:44.782Z,16.40
2017-09-28T16:16:14.312Z,16.50
2017-09-28T16:18:44.920Z,16.50
2017-09-28T16:21:20.951Z,16.50
2017-09-28T16:23:52.023Z,16.40
2017-09-28T16:26:22.829Z,16.40
2017-09-28T16:28:53.263Z,16.40
2017-09-28T16:31:22.573Z,16.40
2017-09-28T16:33:52.102Z,16.30
2017-09-28T16:36:22.287Z,16.20
2017-09-28T16:38:51.636Z,16.20
2017-09-28T16:41:21.858Z,16.20
2017-09-28T16:43:51.351Z,16.10
2017-09-28T16:46:20.721Z,16.10
2017-09-28T16:48:51.681Z,16.00
2017-09-28T16:51:21.155Z,16.00
2017-09-28T16:53:50.462Z,16.00
2017-09-28T16:56:19.706Z,16.00
2017-09-28T16:58:49.300Z,15.90
2017-09-28T17:01:19.531Z,16.00
2017-09-28T17:03:48.959Z,15.80
2017-09-28T17:06:19.324Z,15.80
2017-09-28T17:08:48.613Z,15.70
2017-09-28T17:11:17.843Z,15.70
2017-09-28T17:13:47.457Z,15.70
2017-09-28T17:16:16.663Z,15.70
2017-09-28T17:18:45.860Z,15.70
2017-09-28T17:21:15.359Z,15.80
2017-09-28T17:23:44.487Z,15.80
2017-09-28T17:26:14.494Z,15.80
2017-09-28T17:28:44.518Z,15.80
2017-09-28T17:31:14.556Z,15.80
2017-09-28T17:33:45.706Z,15.70
2017-09-28T17:36:14.836Z,15.60
2017-09-28T17:38:44.017Z,15.70
2017-09-28T17:41:13.787Z,15.70
2017-09-28T17:43:42.922Z,15.70
2017-09-28T17:46:12.738Z,15.60
2017-09-28T17:48:42.232Z,15.50
2017-09-28T17:51:12.135Z,15.60
2017-09-28T17:53:42.708Z,15.60
2017-09-28T17:56:13.968Z,15.60
2017-09-28T17:58:43.080Z,15.60
2017-09-28T18:01:13.887Z,15.70
2017-09-28T18:03:44.478Z,15.60
2017-09-28T18:06:13.639Z,15.60
2017-09-28T18:08:43.711Z,15.60
2017-09-28T18:11:13.611Z,15.60
2017-09-28T18:13:42.766Z,15.70
2017-09-28T18:16:13.638Z,15.70
2017-09-28T18:18:43.172Z,15.70
2017-09-28T18:21:12.362Z,15.60
2017-09-28T18:23:42.486Z,15.50
2017-09-28T18:26:12.102Z,15.50
2017-09-28T18:28:41.229Z,15.50
2017-09-28T18:31:10.492Z,15.40
2017-09-28T18:33:40.069Z,15.20
2017-09-28T18:36:09.167Z,15.30
2017-09-28T18:38:38.271Z,15.40
2017-09-28T18:41:08.043Z,15.40
2017-09-28T18:43:37.671Z,15.30
2017-09-28T18:46:07.032Z,15.20
2017-09-28T18:48:36.271Z,15.20
2017-09-28T18:51:05.445Z,15.20
2017-09-28T18:53:35.677Z,15.10
2017-09-28T18:56:05.126Z,15.20
2017-09-28T18:58:34.328Z,15.20
2017-09-28T19:01:03.438Z,15.10
2017-09-28T19:03:33.344Z,15.10
2017-09-28T19:06:03.112Z,15.00
2017-09-28T19:08:33.529Z,15.00
2017-09-28T19:11:02.682Z,14.90
2017-09-28T19:13:31.847Z,14.90
2017-09-28T19:16:02.195Z,14.80
2017-09-28T19:18:31.395Z,14.80
2017-09-28T19:21:01.191Z,14.80
2017-09-28T19:23:30.730Z,14.90
2017-09-28T19:26:01.796Z,14.90
2017-09-28T19:28:31.447Z,14.90
2017-09-28T19:31:00.702Z,14.80
2017-09-28T19:33:30.004Z,14.90
2017-09-28T19:36:00.256Z,14.90
2017-09-28T19:38:30.375Z,14.80
2017-09-28T19:41:01.045Z,14.80
2017-09-28T19:43:30.684Z,14.70
2017-09-28T19:46:01.477Z,14.80
2017-09-28T19:48:31.660Z,14.70
2017-09-28T19:51:01.005Z,14.80
2017-09-28T19:53:30.610Z,14.80
2017-09-28T19:56:00.315Z,14.80
2017-09-28T19:58:29.758Z,14.70
2017-09-28T20:00:59.097Z,14.70
2017-09-28T20:03:29.295Z,14.70
2017-09-28T20:05:59.719Z,14.70
2017-09-28T20:08:29.221Z,14.70
2017-09-28T20:10:59.340Z,14.70
2017-09-28T20:13:28.788Z,14.70
2017-09-28T20:15:58.459Z,14.70
2017-09-28T20:18:28.495Z,14.70
2017-09-28T20:20:57.902Z,14.70
2017-09-28T20:23:27.391Z,14.70
2017-09-28T20:25:57.058Z,14.60
2017-09-28T20:28:27.045Z,14.60
2017-09-28T20:30:57.514Z,14.60
2017-09-28T20:33:27.072Z,14.60
2017-09-28T20:35:56.556Z,14.50
2017-09-28T20:38:27.103Z,14.60
2017-09-28T20:40:57.449Z,14.60
2017-09-28T20:43:27.026Z,14.60
2017-09-28T20:45:56.888Z,14.60
2017-09-28T20:48:26.351Z,14.60
2017-09-28T20:50:55.875Z,14.60
2017-09-28T20:53:27.083Z,14.60
2017-09-28T20:55:56.435Z,14.50
2017-09-28T20:58:25.971Z,14.50
2017-09-28T21:00:57.875Z,14.60
2017-09-28T21:03:28.088Z,14.50
2017-09-28T21:05:57.523Z,14.50
2017-09-28T21:08:27.062Z,14.50
2017-09-28T21:10:56.330Z,14.50
2017-09-28T21:13:26.568Z,14.40
2017-09-28T21:15:57.055Z,14.50
2017-09-28T21:18:27.276Z,14.40
2017-09-28T21:20:56.780Z,14.40
2017-09-28T21:23:26.106Z,14.40
2017-09-28T21:25:55.367Z,14.40
2017-09-28T21:28:24.777Z,14.40
2017-09-28T21:30:54.621Z,14.30
2017-09-28T21:33:24.505Z,14.30
2017-09-28T21:35:53.936Z,14.30
2017-09-28T21:38:23.681Z,14.30
2017-09-28T21:40:53.144Z,14.30
2017-09-28T21:43:23.180Z,14.20
2017-09-28T21:45:52.818Z,14.20
2017-09-28T21:48:24.006Z,14.20
2017-09-28T21:50:53.601Z,14.20
2017-09-28T21:53:23.952Z,14.20
2017-09-28T21:55:53.311Z,14.20
2017-09-28T21:58:23.939Z,14.30
2017-09-28T22:00:53.491Z,14.20
2017-09-28T22:03:23.609Z,14.30
2017-09-28T22:05:54.340Z,14.30
2017-09-28T22:08:23.511Z,14.30
2017-09-28T22:10:52.744Z,14.30
2017-09-28T22:13:22.838Z,14.40
2017-09-28T22:15:52.252Z,14.40
2017-09-28T22:18:22.112Z,14.40
2017-09-28T22:20:52.196Z,14.50
2017-09-28T22:23:23.234Z,14.50
2017-09-28T22:25:53.656Z,14.50
2017-09-28T22:28:22.957Z,14.50
2017-09-28T22:30:52.261Z,14.50
2017-09-28T22:33:22.623Z,14.60
2017-09-28T22:35:52.202Z,14.60
2017-09-28T22:38:23.292Z,14.60
2017-09-28T22:40:52.490Z,14.60
2017-09-28T22:43:22.812Z,14.60
2017-09-28T22:45:52.546Z,14.50
2017-09-28T22:48:21.785Z,14.60
2017-09-28T22:50:51.781Z,14.70
2017-09-28T22:53:22.208Z,14.60
2017-09-28T22:55:51.721Z,14.70
2017-09-28T22:58:21.872Z,14.70
2017-09-28T23:00:51.351Z,14.70
2017-09-28T23:03:21.062Z,14.70
2017-09-28T23:05:50.611Z,14.70
2017-09-28T23:08:23.475Z,14.70
2017-09-28T23:10:52.749Z,14.70
2017-09-28T23:13:22.508Z,14.70
2017-09-28T23:15:52.450Z,14.70
2017-09-28T23:18:23.721Z,14.70
2017-09-28T23:20:54.256Z,14.70
2017-09-28T23:23:24.302Z,14.70
2017-09-28T23:25:54.595Z,14.60
2017-09-28T23:28:25.047Z,14.70
2017-09-28T23:30:55.060Z,14.70
2017-09-28T23:33:24.517Z,14.60
2017-09-28T23:35:55.107Z,14.70
2017-09-28T23:38:25.558Z,14.70
2017-09-28T23:40:55.634Z,14.70
2017-09-28T23:43:25.633Z,14.60
2017-09-28T23:45:54.908Z,14.60
2017-09-28T23:48:24.416Z,14.60
2017-09-28T23:50:54.182Z,14.60
2017-09-28T23:53:23.515Z,14.60
2017-09-28T23:55:53.836Z,14.50
2017-09-28T23:58:23.532Z,14.50
